Time;durP1;ratioP1;P1;durP2;ratioP2;P2;SDS_P1;SDS_P2;PMS_P1;PMS_P2;Temp;Humidity;BMP_temperature;BMP_pressure;BME280_temperature;BME280_humidity;BME280_pressure;Samples;Min_cycle;Max_cycle;Signal;HPM_P1;HPM_P2
2023/07/24 00:01:38;;;;;;;6.05;4.65;;;;;;;16.78;77.77;100201.86;1667943;86;21036;-66
2023/07/24 00:04:06;;;;;;;8.18;4.60;;;;;;;16.76;77.67;100197.66;1667941;86;21012;-65
2023/07/24 00:06:36;;;;;;;8.58;5.00;;;;;;;16.74;77.70;100190.98;1668184;85;21083;-65
2023/07/24 00:09:05;;;;;;;7.30;4.50;;;;;;;16.73;77.71;100194.83;1667968;85;21063;-63
2023/07/24 00:11:35;;;;;;;6.10;4.10;;;;;;;16.70;77.84;100187.02;1668225;86;21127;-66
2023/07/24 00:14:04;;;;;;;5.85;4.60;;;;;;;16.71;77.92;100185.93;1668139;85;21039;-65
2023/07/24 00:16:33;;;;;;;6.55;4.25;;;;;;;16.67;77.86;100188.05;1668028;86;21088;-64
2023/07/24 00:19:02;;;;;;;5.97;4.45;;;;;;;16.59;78.01;100189.77;1667964;85;21155;-65
2023/07/24 00:21:31;;;;;;;6.12;4.62;;;;;;;16.56;78.30;100188.33;1667976;85;21534;-67
2023/07/24 00:24:01;;;;;;;9.25;4.35;;;;;;;16.55;78.45;100188.02;1668399;85;21106;-67
2023/07/24 00:26:31;;;;;;;7.47;4.40;;;;;;;16.55;78.56;100179.73;1668215;85;21064;-65
2023/07/24 00:29:00;;;;;;;5.97;4.60;;;;;;;16.54;78.68;100176.66;1668198;85;21198;-70
2023/07/24 00:31:29;;;;;;;9.25;5.00;;;;;;;16.52;78.95;100177.98;1667997;85;21012;-64
2023/07/24 00:34:00;;;;;;;9.90;5.00;;;;;;;16.51;79.12;100168.85;1667999;86;21555;-66
2023/07/24 00:36:30;;;;;;;8.10;5.10;;;;;;;16.51;79.28;100171.62;1668090;85;21040;-66
2023/07/24 00:38:59;;;;;;;6.47;4.75;;;;;;;16.50;79.40;100168.55;1668090;86;21456;-65
2023/07/24 00:41:27;;;;;;;9.45;4.95;;;;;;;16.53;79.43;100169.99;1668249;85;21150;-65
2023/07/24 00:43:56;;;;;;;7.12;4.80;;;;;;;16.52;79.21;100165.00;1668208;86;21453;-64
2023/07/24 00:46:25;;;;;;;9.53;5.30;;;;;;;16.51;79.10;100166.63;1668001;85;21480;-65
2023/07/24 00:48:55;;;;;;;6.85;4.78;;;;;;;16.51;78.97;100164.70;1667987;86;21087;-65
2023/07/24 00:51:24;;;;;;;9.95;4.78;;;;;;;16.47;78.85;100158.81;1668066;84;21060;-66
2023/07/24 00:53:54;;;;;;;6.58;4.28;;;;;;;16.46;78.82;100164.59;1652591;86;21087;-67
2023/07/24 00:56:24;;;;;;;6.15;4.62;;;;;;;16.47;78.84;100161.58;1640183;87;21063;-65
2023/07/24 00:58:56;;;;;;;8.78;4.72;;;;;;;16.46;78.75;100152.98;1652162;87;21501;-65
2023/07/24 01:01:25;;;;;;;6.20;4.00;;;;;;;16.47;78.69;100156.05;1652207;87;21043;-65
2023/07/24 01:03:54;;;;;;;6.75;4.15;;;;;;;16.47;78.46;100157.97;1652290;87;21094;-65
2023/07/24 01:06:23;;;;;;;7.70;4.12;;;;;;;16.47;78.29;100160.20;1652293;87;21068;-65
2023/07/24 01:08:52;;;;;;;8.43;4.97;;;;;;;16.44;78.19;100158.45;1640957;87;21087;-66
2023/07/24 01:11:34;;;;;;;5.42;4.00;;;;;;;16.40;78.31;100158.09;1652284;85;21524;-66
2023/07/24 01:14:12;;;;;;;8.45;3.92;;;;;;;16.40;78.39;100155.87;1652143;85;21068;-65
2023/07/24 01:16:43;;;;;;;6.03;4.40;;;;;;;16.35;78.53;100147.47;1652398;87;21051;-64
2023/07/24 01:19:28;;;;;;;9.08;4.47;;;;;;;16.34;78.79;100149.93;1652153;87;21497;-66
2023/07/24 01:22:29;;;;;;;6.65;4.47;;;;;;;16.34;79.07;100151.31;1652086;86;21071;-65
2023/07/24 01:25:23;;;;;;;7.65;4.17;;;;;;;16.30;79.19;100153.72;1652212;86;21103;-67
2023/07/24 01:27:51;;;;;;;5.12;3.90;;;;;;;16.26;79.28;100148.38;1652442;85;21008;-64
2023/07/24 01:30:20;;;;;;;7.95;4.28;;;;;;;16.23;79.27;100147.98;1652185;85;21143;-66
2023/07/24 01:32:49;;;;;;;6.12;3.95;;;;;;;16.20;79.45;100140.17;1652541;85;21549;-65
2023/07/24 01:35:19;;;;;;;7.08;4.10;;;;;;;16.20;79.53;100145.70;1652352;86;21052;-64
2023/07/24 01:37:48;;;;;;;6.47;4.37;;;;;;;16.22;79.47;100149.06;1652303;85;21466;-65
2023/07/24 01:40:18;;;;;;;8.38;4.53;;;;;;;16.23;79.37;100146.59;1652220;85;21218;-65
2023/07/24 01:42:48;;;;;;;6.67;4.20;;;;;;;16.23;79.34;100151.59;1652106;85;21076;-65
2023/07/24 01:45:17;;;;;;;6.20;4.60;;;;;;;16.23;79.28;100158.50;1639883;87;21107;-64
2023/07/24 01:47:46;;;;;;;7.15;4.10;;;;;;;16.22;79.19;100155.44;1652141;85;21139;-65
2023/07/24 01:50:15;;;;;;;6.28;4.30;;;;;;;16.20;79.10;100159.52;1652116;87;21047;-65
2023/07/24 01:52:45;;;;;;;5.65;3.80;;;;;;;16.16;79.08;100154.47;1659073;86;21097;-65
2023/07/24 01:55:14;;;;;;;7.12;3.98;;;;;;;16.15;79.18;100157.48;1668210;85;21497;-66
2023/07/24 01:57:43;;;;;;;6.83;4.50;;;;;;;16.15;79.24;100165.23;1668154;85;21036;-64
2023/07/24 02:00:12;;;;;;;6.03;4.17;;;;;;;16.15;79.32;100172.14;1668070;85;21110;-65
2023/07/24 02:02:41;;;;;;;6.80;4.25;;;;;;;16.14;79.29;100169.62;1667959;85;21099;-64
2023/07/24 02:05:11;;;;;;;7.87;4.22;;;;;;;16.14;79.28;100173.22;1667987;85;21040;-65
2023/07/24 02:07:40;;;;;;;7.50;4.35;;;;;;;16.15;79.25;100166.61;1668291;85;21088;-64
2023/07/24 02:10:10;;;;;;;6.87;4.03;;;;;;;16.17;79.19;100163.61;1668123;85;21051;-65
2023/07/24 02:12:38;;;;;;;6.60;3.98;;;;;;;16.15;78.87;100169.37;1667970;85;21012;-66
2023/07/24 02:15:08;;;;;;;6.95;4.05;;;;;;;16.16;78.69;100171.06;1667959;86;21039;-65
2023/07/24 02:17:38;;;;;;;6.55;3.95;;;;;;;16.15;78.68;100170.76;1667963;85;21436;-64
2023/07/24 02:20:08;;;;;;;5.00;3.92;;;;;;;16.20;78.61;100178.88;1668144;86;21076;-64
2023/07/24 02:22:37;;;;;;;6.90;3.72;;;;;;;16.20;78.47;100179.71;1667985;86;21476;-65
2023/07/24 02:25:08;;;;;;;5.92;3.92;;;;;;;16.15;78.31;100180.44;1667944;86;21135;-65
2023/07/24 02:27:37;;;;;;;6.72;3.67;;;;;;;16.16;78.05;100170.22;1668121;86;21040;-65
2023/07/24 02:30:07;;;;;;;5.08;3.37;;;;;;;16.25;77.19;100177.07;1667925;86;21060;-65
2023/07/24 02:32:37;;;;;;;4.85;3.00;;;;;;;16.37;75.81;100179.86;1668034;86;21056;-65
2023/07/24 02:35:07;;;;;;;4.95;3.15;;;;;;;16.51;73.80;100175.77;1648065;86;21097;-66
2023/07/24 02:37:36;;;;;;;4.08;3.20;;;;;;;16.67;72.49;100176.98;1667972;85;21080;-65
2023/07/24 02:40:06;;;;;;;4.72;2.92;;;;;;;16.80;71.50;100178.94;1668163;86;21501;-65
2023/07/24 02:42:35;;;;;;;4.55;2.75;;;;;;;16.93;70.39;100177.02;1668033;86;21506;-65
2023/07/24 02:45:10;;;;;;;3.75;3.05;;;;;;;17.02;69.79;100179.15;1668090;86;21115;-64
2023/07/24 02:47:36;;;;;;;4.10;2.90;;;;;;;17.11;69.46;100179.05;1668012;85;21145;-65
2023/07/24 02:50:06;;;;;;;4.37;2.98;;;;;;;17.21;69.13;100183.95;1667982;86;21488;-65
2023/07/24 02:52:35;;;;;;;7.87;3.15;;;;;;;17.27;68.49;100177.43;1668043;85;21162;-66
2023/07/24 02:55:05;;;;;;;5.42;3.08;;;;;;;17.35;68.17;100185.34;1667880;85;21462;-66
2023/07/24 02:57:34;;;;;;;5.50;3.00;;;;;;;17.41;67.66;100182.13;1668329;86;21067;-65
2023/07/24 03:00:05;;;;;;;4.05;2.98;;;;;;;17.47;66.98;100178.36;1668066;85;21083;-65
2023/07/24 03:02:34;;;;;;;4.97;3.17;;;;;;;17.50;66.41;100182.56;1668228;86;21053;-65
2023/07/24 03:05:04;;;;;;;4.50;3.02;;;;;;;17.54;66.11;100180.98;1668125;86;21075;-66
2023/07/24 03:07:34;;;;;;;6.45;3.58;;;;;;;17.58;65.84;100178.04;1668096;85;21538;-65
2023/07/24 03:10:04;;;;;;;5.15;3.27;;;;;;;17.61;65.83;100179.77;1667652;86;21463;-65
2023/07/24 03:12:33;;;;;;;4.30;3.00;;;;;;;17.64;65.89;100181.20;1668251;86;21036;-65
2023/07/24 03:15:02;;;;;;;4.33;2.95;;;;;;;17.68;65.64;100174.94;1668121;86;21533;-65
2023/07/24 03:17:32;;;;;;;4.90;3.17;;;;;;;17.72;65.51;100167.80;1668151;85;21064;-65
2023/07/24 03:20:15;;;;;;;4.45;3.25;;;;;;;17.77;65.56;100171.20;1668025;86;21472;-66
2023/07/24 03:22:43;;;;;;;6.22;3.40;;;;;;;17.78;65.55;100164.58;1667706;86;21511;-66
2023/07/24 03:25:13;;;;;;;4.08;3.12;;;;;;;17.80;65.59;100169.32;1667580;86;21071;-66
2023/07/24 03:27:42;;;;;;;5.17;3.52;;;;;;;17.82;65.81;100169.91;1668085;86;21104;-65
2023/07/24 03:30:11;;;;;;;6.37;3.27;;;;;;;17.81;66.42;100172.94;1668051;86;21095;-64
2023/07/24 03:32:40;;;;;;;7.10;3.52;;;;;;;17.79;66.99;100167.64;1667912;85;21016;-65
2023/07/24 03:35:09;;;;;;;4.97;3.08;;;;;;;17.79;67.36;100163.48;1667945;85;21012;-65
2023/07/24 03:37:40;;;;;;;6.35;3.37;;;;;;;17.78;67.76;100160.97;1668198;85;21052;-66
2023/07/24 03:40:10;;;;;;;5.87;3.67;;;;;;;17.76;68.16;100163.98;1668166;85;21076;-65
2023/07/24 03:42:39;;;;;;;9.95;4.85;;;;;;;17.74;68.60;100163.39;1668061;86;21083;-67
2023/07/24 03:45:09;;;;;;;8.00;4.05;;;;;;;17.76;69.24;100164.53;1667808;85;21464;-64
2023/07/24 03:47:38;;;;;;;8.18;4.37;;;;;;;17.76;69.77;100168.69;1667960;86;21048;-65
2023/07/24 03:50:09;;;;;;;5.78;4.22;;;;;;;17.76;70.23;100153.45;1667772;85;21071;-67
2023/07/24 03:52:37;;;;;;;8.23;4.37;;;;;;;17.76;70.85;100153.45;1668022;84;21059;-64
2023/07/24 03:55:08;;;;;;;10.18;3.87;;;;;;;17.76;71.45;100151.52;1667825;85;21103;-65
2023/07/24 03:57:36;;;;;;;5.05;3.80;;;;;;;17.73;72.01;100152.02;1668072;86;21072;-66
2023/07/24 04:00:07;;;;;;;8.40;4.62;;;;;;;17.72;72.41;100152.56;1667903;86;21056;-65
2023/07/24 04:02:41;;;;;;;8.75;3.80;;;;;;;17.76;72.84;100146.52;1668170;86;21099;-64
2023/07/24 04:05:10;;;;;;;6.03;4.10;;;;;;;17.85;72.87;100151.39;1667849;85;21072;-65
2023/07/24 04:07:39;;;;;;;6.12;3.67;;;;;;;17.95;72.17;100150.17;1668015;85;21043;-65
2023/07/24 04:10:09;;;;;;;8.35;3.62;;;;;;;18.07;71.60;100145.92;1668061;85;21460;-66
2023/07/24 04:12:38;;;;;;;9.63;4.60;;;;;;;18.20;70.24;100152.51;1667855;86;21499;-66
2023/07/24 04:15:08;;;;;;;7.08;3.40;;;;;;;18.33;69.61;100148.02;1667832;85;21020;-66
2023/07/24 04:17:38;;;;;;;6.25;3.22;;;;;;;18.47;68.48;100142.95;1667580;85;21056;-66
2023/07/24 04:20:09;;;;;;;6.15;3.20;;;;;;;18.61;67.77;100149.84;1667814;86;21087;-65
2023/07/24 04:22:38;;;;;;;3.85;3.10;;;;;;;18.74;67.28;100150.01;1667839;86;21503;-66
2023/07/24 04:25:08;;;;;;;6.37;3.75;;;;;;;18.84;66.66;100143.75;1667644;85;21047;-67
2023/07/24 04:27:36;;;;;;;6.22;3.20;;;;;;;18.95;66.34;100146.97;1667972;85;21068;-65
2023/07/24 04:30:07;;;;;;;6.25;3.17;;;;;;;19.08;65.26;100138.80;1667852;86;21080;-66
2023/07/24 04:32:35;;;;;;;5.37;3.20;;;;;;;19.20;64.55;100135.32;1667835;85;21538;-67
2023/07/24 04:35:05;;;;;;;5.53;3.72;;;;;;;19.29;64.13;100129.59;1667733;86;21055;-64
2023/07/24 04:37:34;;;;;;;7.55;4.20;;;;;;;19.37;63.79;100136.61;1668154;86;21075;-65
2023/07/24 04:40:03;;;;;;;6.72;3.67;;;;;;;19.42;63.45;100135.27;1667966;85;21080;-67
2023/07/24 04:42:33;;;;;;;6.15;4.92;;;;;;;19.47;63.25;100138.10;1667925;86;21055;-66
2023/07/24 04:45:02;;;;;;;6.08;3.50;;;;;;;19.51;63.05;100134.56;1667765;86;21100;-65
2023/07/24 04:47:33;;;;;;;6.72;3.72;;;;;;;19.55;62.82;100132.97;1667864;85;21064;-64
2023/07/24 04:50:02;;;;;;;5.53;3.30;;;;;;;19.58;62.54;100123.27;1667801;85;21107;-65
2023/07/24 04:52:32;;;;;;;6.78;3.52;;;;;;;19.62;62.71;100123.86;1667996;86;21055;-63
2023/07/24 04:55:01;;;;;;;9.23;4.15;;;;;;;19.67;62.54;100123.07;1667973;86;21028;-67
2023/07/24 04:57:30;;;;;;;5.50;3.70;;;;;;;19.71;62.60;100124.77;1667939;85;21555;-67
2023/07/24 04:59:59;;;;;;;5.92;3.70;;;;;;;19.76;62.23;100131.22;1668001;85;21455;-68
2023/07/24 05:02:28;;;;;;;6.22;3.60;;;;;;;19.83;61.82;100133.22;1668043;86;21040;-65
2023/07/24 05:04:57;;;;;;;6.78;3.70;;;;;;;19.91;61.59;100127.72;1668095;86;21099;-66
2023/07/24 05:07:26;;;;;;;5.50;3.30;;;;;;;20.01;61.37;100124.18;1667945;86;21068;-65
2023/07/24 05:09:55;;;;;;;5.25;3.40;;;;;;;20.17;60.80;100125.45;1667921;86;21072;-65
2023/07/24 05:12:25;;;;;;;4.47;3.08;;;;;;;20.41;59.83;100120.34;1668168;85;21064;-67
2023/07/24 05:14:55;;;;;;;6.30;4.25;;;;;;;20.69;58.56;100121.05;1667990;86;21097;-66
2023/07/24 05:17:24;;;;;;;4.67;3.33;;;;;;;20.95;57.89;100115.89;1668133;85;21083;-67
2023/07/24 05:19:53;;;;;;;4.85;3.10;;;;;;;21.17;56.78;100114.28;1668071;86;21486;-67
2023/07/24 05:22:22;;;;;;;10.13;3.33;;;;;;;21.39;55.80;100111.30;1667915;86;21488;-68
2023/07/24 05:24:51;;;;;;;7.92;3.60;;;;;;;21.64;55.42;100106.34;1667879;86;21488;-68
2023/07/24 05:27:20;;;;;;;4.83;2.92;;;;;;;21.87;54.92;100103.55;1668191;86;21455;-68
2023/07/24 05:29:49;;;;;;;3.67;2.70;;;;;;;22.10;53.87;100104.40;1667976;85;21036;-69
2023/07/24 05:32:18;;;;;;;4.35;3.22;;;;;;;22.32;53.18;100105.50;1668074;86;21071;-67
2023/07/24 05:34:46;;;;;;;11.57;3.05;;;;;;;22.58;52.44;100105.71;1668133;86;21036;-68
2023/07/24 05:37:15;;;;;;;5.90;3.42;;;;;;;22.83;51.64;100110.42;1667901;85;21079;-68
2023/07/24 05:39:44;;;;;;;7.00;3.05;;;;;;;23.08;50.61;100101.09;1667866;86;21111;-69
2023/07/24 05:42:13;;;;;;;4.33;3.22;;;;;;;23.27;50.02;100095.66;1667849;85;21099;-67
2023/07/24 05:44:41;;;;;;;4.67;3.27;;;;;;;23.49;48.64;100093.30;1667970;85;21123;-68
2023/07/24 05:47:10;;;;;;;5.70;3.47;;;;;;;23.63;48.32;100089.31;1668068;85;21044;-68
2023/07/24 05:49:39;;;;;;;3.92;2.95;;;;;;;23.84;47.99;100089.41;1667932;86;21067;-69
2023/07/24 05:52:10;;;;;;;4.42;3.22;;;;;;;24.05;47.68;100084.47;1668193;85;21083;-69
2023/07/24 05:54:38;;;;;;;5.83;3.20;;;;;;;24.25;46.75;100088.49;1667888;86;21121;-69
2023/07/24 05:57:07;;;;;;;7.95;3.67;;;;;;;24.39;46.22;100083.62;1667942;85;21047;-68
2023/07/24 05:59:35;;;;;;;7.67;3.85;;;;;;;24.55;46.11;100085.11;1667878;86;21499;-68
2023/07/24 06:02:05;;;;;;;6.47;3.10;;;;;;;24.76;45.88;100087.97;1667995;85;21068;-70
2023/07/24 06:04:34;;;;;;;5.80;3.25;;;;;;;25.08;45.28;100086.45;1667994;86;21056;-70
2023/07/24 06:07:03;;;;;;;4.35;3.02;;;;;;;25.44;44.43;100076.41;1668083;86;21131;-69
2023/07/24 06:09:32;;;;;;;4.70;3.02;;;;;;;25.72;43.01;100081.59;1667978;86;21076;-68
2023/07/24 06:12:01;;;;;;;6.85;3.40;;;;;;;25.89;41.92;100069.23;1667946;85;21495;-68
2023/07/24 06:14:30;;;;;;;6.80;3.58;;;;;;;25.99;41.36;100071.03;1668079;85;21053;-68
2023/07/24 06:16:59;;;;;;;8.90;3.10;;;;;;;26.06;41.35;100065.88;1667868;85;21071;-68
2023/07/24 06:19:29;;;;;;;8.73;4.75;;;;;;;26.14;41.40;100060.95;1667831;85;21516;-67
2023/07/24 06:21:57;;;;;;;7.17;3.72;;;;;;;26.28;41.13;100062.95;1649341;86;21060;-67
2023/07/24 06:24:27;;;;;;;8.18;3.80;;;;;;;26.41;40.79;100051.75;1668086;85;21065;-69
2023/07/24 06:26:56;;;;;;;3.45;3.10;;;;;;;26.58;40.64;100046.91;1679268;84;21095;-68
2023/07/24 06:29:25;;;;;;;5.53;3.37;;;;;;;26.78;40.40;100052.12;1682881;84;21452;-71
2023/07/24 06:31:54;;;;;;;7.70;3.45;;;;;;;26.99;40.17;100048.33;1702155;84;21083;-69
2023/07/24 06:34:23;;;;;;;4.97;3.05;;;;;;;27.24;39.40;100037.64;1702323;84;21007;-68
2023/07/24 06:36:51;;;;;;;5.67;4.62;;;;;;;27.46;39.45;100037.69;1702488;84;21039;-67
2023/07/24 06:39:20;;;;;;;6.47;3.90;;;;;;;27.70;39.00;100040.22;1702359;84;21111;-69
2023/07/24 06:41:49;;;;;;;6.62;3.70;;;;;;;27.92;38.77;100035.97;1702150;84;21953;-68
2023/07/24 06:44:17;;;;;;;4.80;3.20;;;;;;;28.12;37.99;100032.38;1702095;84;21479;-70
2023/07/24 06:46:47;;;;;;;5.20;3.42;;;;;;;28.33;36.96;100037.16;1702169;84;21753;-67
2023/07/24 06:49:16;;;;;;;4.20;3.40;;;;;;;28.54;36.36;100030.35;1702187;84;21109;-68
2023/07/24 06:51:45;;;;;;;4.05;2.95;;;;;;;28.69;36.27;100027.11;1702270;84;21047;-68
2023/07/24 06:54:13;;;;;;;3.83;3.27;;;;;;;28.79;36.00;100032.19;1702839;84;21035;-68
2023/07/24 06:56:42;;;;;;;5.50;3.52;;;;;;;28.84;35.84;100026.43;1706917;84;21078;-68
2023/07/24 06:59:11;;;;;;;6.80;3.10;;;;;;;28.90;35.90;100025.11;1705579;83;21067;-68
2023/07/24 07:01:39;;;;;;;8.65;4.00;;;;;;;28.95;35.77;100018.73;1709312;83;21479;-68
2023/07/24 07:04:08;;;;;;;5.03;3.22;;;;;;;29.02;36.02;100020.48;1709246;84;21019;-69
2023/07/24 07:06:37;;;;;;;6.12;3.17;;;;;;;29.17;35.75;100019.17;1709636;83;21031;-68
2023/07/24 07:09:07;;;;;;;4.70;3.52;;;;;;;29.32;35.24;100018.70;1709124;84;21074;-68
2023/07/24 07:11:36;;;;;;;6.22;3.77;;;;;;;29.44;34.64;100014.42;1689527;84;21155;-69
2023/07/24 07:14:04;;;;;;;6.65;4.00;;;;;;;29.49;34.71;100012.25;1709228;84;21066;-72
2023/07/24 07:16:33;;;;;;;6.50;3.70;;;;;;;29.55;34.79;100012.33;1709184;83;21027;-69
2023/07/24 07:19:02;;;;;;;5.05;3.52;;;;;;;29.69;34.76;100015.55;1709862;83;21156;-69
2023/07/24 07:21:31;;;;;;;5.45;3.90;;;;;;;29.77;34.37;100010.47;1709426;83;21074;-68
2023/07/24 07:24:00;;;;;;;6.58;4.15;;;;;;;29.83;34.55;100002.06;1709293;83;21047;-70
2023/07/24 07:26:29;;;;;;;7.08;3.77;;;;;;;29.92;34.19;100007.97;1709172;83;21440;-68
2023/07/24 07:28:59;;;;;;;5.37;3.47;;;;;;;30.00;34.40;100002.63;1709519;83;21031;-69
2023/07/24 07:31:30;;;;;;;5.53;3.20;;;;;;;30.11;34.68;100003.37;1709461;83;21067;-69
2023/07/24 07:33:59;;;;;;;4.40;3.50;;;;;;;30.18;34.61;100005.67;1709599;83;21047;-69
2023/07/24 07:36:27;;;;;;;5.40;4.08;;;;;;;30.28;34.49;100000.47;1709334;84;21495;-70
2023/07/24 07:38:56;;;;;;;6.70;3.40;;;;;;;30.37;34.26;100003.84;1709209;84;21075;-68
2023/07/24 07:41:25;;;;;;;5.62;3.45;;;;;;;30.48;34.15;100004.53;1709200;84;21055;-70
2023/07/24 07:43:53;;;;;;;5.25;3.72;;;;;;;30.63;33.09;99999.53;1709121;84;21564;-69
2023/07/24 07:46:22;;;;;;;6.25;4.33;;;;;;;30.72;33.06;99996.06;1709166;84;21117;-70
2023/07/24 07:48:50;;;;;;;10.65;4.25;;;;;;;30.84;32.78;99992.73;1709299;84;21094;-70
2023/07/24 07:51:19;;;;;;;6.50;3.75;;;;;;;31.01;32.73;100000.85;1709262;84;20987;-69
2023/07/24 07:53:48;;;;;;;5.20;3.80;;;;;;;31.14;32.65;99996.92;1709260;84;21035;-70
2023/07/24 07:56:17;;;;;;;8.15;4.78;;;;;;;31.10;32.11;99989.71;1705491;83;21134;-69
2023/07/24 07:58:47;;;;;;;7.37;4.10;;;;;;;31.05;32.62;99991.91;1697102;84;21043;-69
2023/07/24 08:01:15;;;;;;;8.05;4.47;;;;;;;31.04;32.74;100005.23;1697431;84;21067;-70
2023/07/24 08:03:44;;;;;;;6.28;3.85;;;;;;;31.15;32.59;99998.02;1697486;84;21088;-66
2023/07/24 08:06:13;;;;;;;10.18;4.10;;;;;;;31.27;32.65;100002.13;1697550;84;21059;-67
2023/07/24 08:08:42;;;;;;;7.28;4.72;;;;;;;31.36;32.27;100001.47;1686067;82;21077;-69
2023/07/24 08:11:11;;;;;;;5.47;3.58;;;;;;;31.45;32.63;99999.38;1688536;82;21043;-70
2023/07/24 08:13:40;;;;;;;6.30;4.10;;;;;;;31.55;32.37;99993.28;1697079;84;20988;-70
2023/07/24 08:16:19;;;;;;;8.25;3.75;;;;;;;31.51;32.60;99999.41;1695395;84;21103;-69
2023/07/24 08:18:47;;;;;;;5.95;3.80;;;;;;;31.40;32.94;99996.17;1699652;83;21122;-70
2023/07/24 08:21:16;;;;;;;6.62;4.30;;;;;;;31.40;32.84;99988.27;1690171;84;21098;-70
2023/07/24 08:23:44;;;;;;;7.97;4.17;;;;;;;31.19;33.13;99988.25;1725426;82;21454;-69
2023/07/24 08:26:13;;;;;;;4.60;3.90;;;;;;;31.05;33.89;99989.91;1725229;83;21053;-71
2023/07/24 08:28:42;;;;;;;6.65;4.08;;;;;;;31.10;33.65;99986.88;1698718;83;21796;-71
2023/07/24 08:31:11;;;;;;;11.08;4.58;;;;;;;31.17;33.63;99987.19;1653674;87;21043;-70
2023/07/24 08:33:41;;;;;;;9.33;5.60;;;;;;;31.26;33.52;99984.90;1653819;87;21036;-72
2023/07/24 08:36:12;;;;;;;6.00;3.75;;;;;;;31.41;33.44;99991.34;1653769;87;21079;-71
2023/07/24 08:38:42;;;;;;;8.33;4.00;;;;;;;31.52;33.35;99982.06;1653821;87;21047;-71
2023/07/24 08:41:12;;;;;;;5.85;3.70;;;;;;;31.54;33.46;99996.70;1653808;87;21052;-71
2023/07/24 08:43:43;;;;;;;4.90;4.15;;;;;;;31.63;33.14;99991.55;1653892;87;21498;-70
2023/07/24 08:46:12;;;;;;;6.90;4.00;;;;;;;31.67;32.90;99989.08;1652234;87;21487;-70
2023/07/24 08:48:42;;;;;;;7.50;3.80;;;;;;;31.76;32.65;99990.44;1652142;86;21043;-72
2023/07/24 08:51:12;;;;;;;5.12;3.62;;;;;;;31.75;32.35;99983.11;1651847;85;21047;-71
2023/07/24 08:53:43;;;;;;;6.17;4.15;;;;;;;31.73;33.13;99983.47;1651999;85;21145;-70
2023/07/24 08:56:12;;;;;;;7.65;4.33;;;;;;;31.78;33.04;99977.58;1651925;85;21125;-71
2023/07/24 08:58:41;;;;;;;4.75;3.58;;;;;;;31.80;33.03;99969.55;1624039;87;21060;-70
2023/07/24 09:01:10;;;;;;;6.58;3.65;;;;;;;31.85;32.74;99962.83;1651974;85;21093;-72
2023/07/24 09:03:39;;;;;;;8.05;3.90;;;;;;;31.93;32.80;99971.86;1642758;87;21048;-71
2023/07/24 09:06:08;;;;;;;6.25;3.92;;;;;;;32.04;32.51;99967.98;1642607;86;21063;-71
2023/07/24 09:08:43;;;;;;;7.20;4.20;;;;;;;32.04;32.45;99963.72;1642625;86;21060;-71
2023/07/24 09:11:14;;;;;;;7.58;4.28;;;;;;;31.93;32.89;99961.94;1642435;87;21382;-72
2023/07/24 09:13:43;;;;;;;4.42;3.80;;;;;;;31.80;33.28;99966.72;1622582;87;21067;-71
2023/07/24 09:16:25;;;;;;;6.92;4.75;;;;;;;31.77;33.15;99957.50;1642701;86;21028;-71
2023/07/24 09:18:54;;;;;;;6.47;4.05;;;;;;;31.66;33.04;99950.59;1649332;86;21520;-69
2023/07/24 09:21:30;;;;;;;5.20;3.80;;;;;;;31.46;33.84;99953.72;1671020;84;21511;-71
2023/07/24 09:24:11;;;;;;;8.03;3.92;;;;;;;31.31;33.90;99943.63;1671134;84;21094;-70
2023/07/24 09:26:53;;;;;;;5.95;3.75;;;;;;;31.20;34.55;99949.69;1654227;86;21035;-71
2023/07/24 09:29:32;;;;;;;6.95;4.05;;;;;;;31.08;34.57;99942.52;1671090;86;21015;-70
2023/07/24 09:32:01;;;;;;;6.67;3.87;;;;;;;30.99;34.60;99938.94;1725307;83;21022;-70
2023/07/24 09:34:31;;;;;;;5.62;4.00;;;;;;;30.79;34.56;99936.35;1725436;83;21472;-70
2023/07/24 09:37:00;;;;;;;5.30;3.87;;;;;;;30.63;34.92;99939.55;1705359;82;21508;-72
2023/07/24 09:39:31;;;;;;;7.37;3.85;;;;;;;30.49;34.85;99936.91;1657166;84;21113;-69
2023/07/24 09:42:06;;;;;;;4.92;3.67;;;;;;;30.34;34.38;99926.20;1659313;85;21042;-70
2023/07/24 09:44:35;;;;;;;5.50;3.87;;;;;;;30.24;35.06;99935.89;1653871;85;21061;-71
2023/07/24 09:47:04;;;;;;;5.87;4.00;;;;;;;30.15;35.58;99927.22;1679836;85;21014;-71
2023/07/24 09:49:34;;;;;;;8.55;4.22;;;;;;;30.09;35.51;99917.27;1677105;84;21105;-69
2023/07/24 09:52:05;;;;;;;7.35;4.90;;;;;;;29.96;35.47;99919.13;1679781;85;21102;-70
2023/07/24 09:54:35;;;;;;;5.90;4.00;;;;;;;29.92;35.61;99924.63;1662496;85;21081;-70
2023/07/24 09:57:04;;;;;;;7.35;4.00;;;;;;;29.89;35.20;99921.03;1653650;85;21124;-69
2023/07/24 09:59:35;;;;;;;9.08;4.25;;;;;;;29.81;35.73;99913.42;1631128;86;21084;-71
2023/07/24 10:02:05;;;;;;;6.05;4.35;;;;;;;29.80;36.49;99910.36;1686398;84;21112;-71
2023/07/24 10:04:33;;;;;;;7.62;4.28;;;;;;;29.87;35.89;99911.24;1664253;85;21113;-70
2023/07/24 10:07:03;;;;;;;4.95;3.98;;;;;;;29.89;35.63;99906.91;1651937;85;21145;-71
2023/07/24 10:09:31;;;;;;;6.75;4.12;;;;;;;29.85;35.62;99911.58;1685006;85;21079;-71
2023/07/24 10:12:00;;;;;;;7.97;4.50;;;;;;;29.79;35.91;99908.70;1690326;84;21023;-68
2023/07/24 10:14:29;;;;;;;5.40;4.00;;;;;;;29.69;36.55;99896.36;1708458;83;21036;-71
2023/07/24 10:16:59;;;;;;;5.90;3.80;;;;;;;29.65;36.31;99903.27;1708505;84;21094;-71
2023/07/24 10:19:45;;;;;;;11.85;6.03;;;;;;;29.63;36.68;99904.77;1713267;83;21128;-72
2023/07/24 10:22:20;;;;;;;4.58;4.10;;;;;;;29.63;36.46;99895.71;1715666;83;21466;-70
2023/07/24 10:24:49;;;;;;;6.80;4.40;;;;;;;29.62;36.12;99898.29;1715606;82;21106;-67
2023/07/24 10:27:24;;;;;;;7.83;4.33;;;;;;;29.63;36.39;99907.59;1715272;83;21536;-68
2023/07/24 10:30:06;;;;;;;7.85;4.28;;;;;;;29.65;35.92;99905.26;1715574;84;21078;-70
2023/07/24 10:32:50;;;;;;;13.22;5.30;;;;;;;29.68;35.67;99886.81;1715320;84;21438;-69
2023/07/24 10:35:22;;;;;;;5.92;4.08;;;;;;;29.62;35.91;99884.75;1715327;84;21019;-69
2023/07/24 10:38:02;;;;;;;6.30;3.65;;;;;;;29.63;36.85;99882.17;1715445;82;21567;-69
2023/07/24 10:40:30;;;;;;;12.37;6.30;;;;;;;29.74;37.14;99880.64;1715595;82;21466;-69
2023/07/24 10:43:09;;;;;;;8.90;4.60;;;;;;;29.78;36.37;99880.79;1715661;82;21006;-66
2023/07/24 10:45:53;;;;;;;14.43;6.37;;;;;;;29.78;36.50;99883.03;1694447;83;21061;-66
2023/07/24 10:48:26;;;;;;;7.80;4.42;;;;;;;29.75;36.44;99875.23;1644387;87;21091;-67
2023/07/24 10:50:55;;;;;;;5.65;4.10;;;;;;;29.71;36.14;99871.43;1672438;85;21071;-68
2023/07/24 10:53:26;;;;;;;8.63;5.47;;;;;;;29.72;36.21;99871.67;1685931;84;21451;-68
2023/07/24 10:55:55;;;;;;;6.22;4.00;;;;;;;29.75;36.03;99871.58;1696214;84;21585;-67
2023/07/24 10:58:26;;;;;;;5.80;3.90;;;;;;;29.75;35.48;99873.82;1699425;84;21040;-68
2023/07/24 11:00:58;;;;;;;7.80;4.75;;;;;;;29.70;35.12;99880.23;1651098;87;21102;-67
2023/07/24 11:03:27;;;;;;;5.97;4.37;;;;;;;29.55;34.95;99871.74;1667848;85;21092;-63
2023/07/24 11:05:57;;;;;;;4.95;4.03;;;;;;;29.46;35.09;99872.34;1667741;85;21099;-67
2023/07/24 11:08:27;;;;;;;9.83;4.60;;;;;;;29.44;35.72;99867.62;1667716;85;21048;-69
2023/07/24 11:10:57;;;;;;;6.28;4.40;;;;;;;29.45;35.45;99864.47;1667781;85;21071;-69
2023/07/24 11:13:27;;;;;;;5.37;3.95;;;;;;;29.43;35.96;99861.15;1667907;86;21044;-68
2023/07/24 11:15:56;;;;;;;5.28;3.90;;;;;;;29.41;35.64;99864.03;1667745;85;21505;-66
2023/07/24 11:18:28;;;;;;;6.47;4.50;;;;;;;29.35;36.38;99858.56;1667045;85;21131;-67
2023/07/24 11:20:59;;;;;;;5.47;4.17;;;;;;;29.36;36.13;99846.69;1652457;85;21500;-70
2023/07/24 11:23:31;;;;;;;5.10;3.98;;;;;;;29.47;35.53;99853.66;1653798;85;21072;-67
2023/07/24 11:26:05;;;;;;;7.90;5.00;;;;;;;29.51;35.32;99837.70;1653902;85;21059;-69
2023/07/24 11:28:43;;;;;;;5.63;4.63;;;;;;;29.55;35.51;99842.92;1654189;86;21048;-68
2023/07/24 11:31:19;;;;;;;5.62;4.12;;;;;;;29.62;35.85;99843.81;1653810;85;21415;-68
2023/07/24 11:33:54;;;;;;;8.35;4.50;;;;;;;29.64;36.02;99845.72;1653888;85;21067;-68
2023/07/24 11:36:28;;;;;;;5.55;3.95;;;;;;;29.61;35.91;99834.52;1643395;87;21055;-68
2023/07/24 11:38:56;;;;;;;8.83;4.92;;;;;;;29.58;35.62;99834.36;1654051;86;21035;-68
2023/07/24 11:41:26;;;;;;;6.95;4.00;;;;;;;29.58;35.25;99830.12;1654106;85;21480;-67